Time;durP1;ratioP1;P1;durP2;ratioP2;P2;SDS_P1;SDS_P2;PMS_P1;PMS_P2;Temp;Humidity;BMP_temperature;BMP_pressure;BME280_temperature;BME280_humidity;BME280_pressure;Samples;Min_cycle;Max_cycle;Signal;HPM_P1;HPM_P2
2023/08/21 00:01:36;;;;;;;10.63;7.35;;;23.70;70.70;;;;;;5034173;28;20470;-76
2023/08/21 00:04:02;;;;;;;7.35;6.50;;;23.60;70.90;;;;;;5017384;28;20034;-81
2023/08/21 00:06:28;;;;;;;7.07;6.38;;;23.60;71.00;;;;;;5017434;28;20033;-80
2023/08/21 00:08:53;;;;;;;6.90;6.18;;;23.70;71.00;;;;;;5017485;28;20022;-80
2023/08/21 00:11:19;;;;;;;10.77;6.20;;;23.80;70.50;;;;;;5017580;28;20124;-80
2023/08/21 00:13:47;;;;;;;8.70;6.50;;;23.80;70.20;;;;;;5017556;28;20417;-81
2023/08/21 00:16:13;;;;;;;8.98;6.50;;;23.90;70.00;;;;;;5017687;28;20021;-81
2023/08/21 00:18:39;;;;;;;7.40;6.15;;;23.90;69.50;;;;;;5018562;28;20025;-79
2023/08/21 00:21:04;;;;;;;10.27;7.13;;;23.80;69.60;;;;;;5020048;28;20095;-79
2023/08/21 00:23:31;;;;;;;13.45;6.80;;;23.80;69.70;;;;;;5021318;28;20026;-77
2023/08/21 00:25:56;;;;;;;9.90;6.90;;;23.60;70.30;;;;;;5018409;28;20029;-76
2023/08/21 00:28:22;;;;;;;11.85;7.13;;;23.50;70.70;;;;;;5016981;28;20547;-80
2023/08/21 00:30:48;;;;;;;8.30;6.20;;;23.50;71.00;;;;;;5017991;28;20108;-80
2023/08/21 00:33:13;;;;;;;10.07;6.65;;;23.50;71.30;;;;;;5017507;28;20430;-80
2023/08/21 00:35:39;;;;;;;9.85;6.80;;;23.40;71.20;;;;;;5035430;28;20072;-80
2023/08/21 00:38:05;;;;;;;9.85;6.93;;;23.40;71.10;;;;;;5016410;28;20080;-79
2023/08/21 00:40:31;;;;;;;8.80;6.70;;;23.40;71.40;;;;;;5034838;28;20045;-81
2023/08/21 00:42:57;;;;;;;10.60;7.05;;;23.40;71.30;;;;;;5016956;28;20029;-79
2023/08/21 00:45:23;;;;;;;8.07;6.28;;;23.40;71.70;;;;;;5016949;28;20025;-76
2023/08/21 00:47:48;;;;;;;7.28;6.22;;;23.40;71.60;;;;;;5034445;28;20065;-79
2023/08/21 00:50:15;;;;;;;9.35;6.43;;;23.50;71.10;;;;;;5016756;28;20332;-80
2023/08/21 00:52:42;;;;;;;7.55;6.20;;;23.60;71.10;;;;;;5034396;28;20025;-77
2023/08/21 00:55:09;;;;;;;11.93;6.30;;;23.50;70.90;;;;;;5034222;28;20017;-78
2023/08/21 00:57:36;;;;;;;9.75;6.70;;;23.50;70.80;;;;;;5034037;28;20051;-77
2023/08/21 01:00:04;;;;;;;11.60;6.05;;;23.50;70.60;;;;;;5034151;28;20029;-77
2023/08/21 01:02:29;;;;;;;8.95;6.50;;;23.50;70.30;;;;;;5034295;28;20022;-77
2023/08/21 01:04:55;;;;;;;11.73;6.70;;;23.40;70.70;;;;;;5016222;28;20036;-77
2023/08/21 01:07:20;;;;;;;7.63;6.30;;;23.30;71.40;;;;;;5033951;28;20044;-77
2023/08/21 01:09:58;;;;;;;7.53;6.68;;;23.20;71.40;;;;;;5016175;28;20386;-78
2023/08/21 01:12:42;;;;;;;12.32;7.00;;;23.20;71.90;;;;;;5033710;28;20433;-77
2023/08/21 01:15:09;;;;;;;8.52;6.63;;;23.20;72.00;;;;;;5033711;28;20026;-77
2023/08/21 01:17:37;;;;;;;11.18;6.75;;;23.10;72.10;;;;;;5033772;28;20032;-77
2023/08/21 01:20:06;;;;;;;8.88;7.00;;;23.10;72.10;;;;;;5033604;28;20037;-76
2023/08/21 01:22:37;;;;;;;9.38;6.60;;;23.00;72.20;;;;;;5033685;28;20080;-78
2023/08/21 01:25:06;;;;;;;10.43;6.60;;;23.00;72.50;;;;;;5015867;28;20095;-79
2023/08/21 01:27:33;;;;;;;7.13;6.40;;;22.90;72.80;;;;;;5033553;28;20552;-80
2023/08/21 01:30:00;;;;;;;12.32;6.93;;;22.90;72.90;;;;;;5033725;28;20052;-81
2023/08/21 01:32:28;;;;;;;9.85;6.38;;;22.90;72.90;;;;;;5033448;28;20030;-80
2023/08/21 01:34:55;;;;;;;12.00;6.97;;;22.90;73.90;;;;;;5015669;28;20116;-79
2023/08/21 01:37:23;;;;;;;10.35;5.97;;;22.90;73.30;;;;;;5033503;28;20028;-80
2023/08/21 01:39:49;;;;;;;12.77;6.53;;;22.90;73.40;;;;;;5033548;28;20059;-79
2023/08/21 01:42:14;;;;;;;8.60;6.53;;;22.90;73.00;;;;;;5033547;28;20045;-79
2023/08/21 01:44:40;;;;;;;10.73;6.95;;;22.90;72.90;;;;;;5033428;28;20029;-80
2023/08/21 01:47:06;;;;;;;7.57;6.30;;;22.90;72.80;;;;;;5033325;28;20064;-81
2023/08/21 01:49:31;;;;;;;8.60;6.60;;;22.90;73.20;;;;;;5032369;28;20018;-80
2023/08/21 01:51:57;;;;;;;7.75;7.05;;;22.90;73.10;;;;;;5033093;28;20030;-81
2023/08/21 01:54:22;;;;;;;11.13;6.60;;;22.80;73.20;;;;;;5033163;28;20096;-78
2023/08/21 01:56:48;;;;;;;10.90;7.20;;;22.70;73.60;;;;;;5033114;28;20044;-78
2023/08/21 01:59:13;;;;;;;10.90;7.05;;;22.70;73.80;;;;;;5033081;28;20041;-78
2023/08/21 02:01:39;;;;;;;8.00;6.53;;;22.70;74.10;;;;;;5033111;28;20537;-81
2023/08/21 02:04:04;;;;;;;11.43;6.63;;;22.60;74.10;;;;;;5033051;28;20513;-78
2023/08/21 02:06:30;;;;;;;10.40;6.60;;;22.50;74.40;;;;;;5032924;28;20057;-78
2023/08/21 02:08:55;;;;;;;9.48;7.28;;;22.50;74.70;;;;;;5015166;28;20029;-80
2023/08/21 02:11:21;;;;;;;9.65;7.03;;;22.50;74.60;;;;;;5032987;28;20053;-80
2023/08/21 02:13:46;;;;;;;8.98;7.05;;;22.50;74.90;;;;;;5032817;28;20068;-79
2023/08/21 02:16:12;;;;;;;9.30;6.90;;;22.40;74.90;;;;;;5032914;28;20029;-81
2023/08/21 02:18:38;;;;;;;9.95;7.43;;;22.50;75.20;;;;;;5032945;28;20032;-79
2023/08/21 02:21:03;;;;;;;12.48;7.20;;;22.50;74.80;;;;;;5032570;28;20029;-80
2023/08/21 02:23:29;;;;;;;9.00;7.30;;;22.40;74.90;;;;;;5032816;28;20479;-80
2023/08/21 02:25:55;;;;;;;8.20;6.80;;;22.30;75.40;;;;;;5032544;28;20386;-80
2023/08/21 02:28:20;;;;;;;10.68;7.07;;;22.40;75.40;;;;;;5032634;28;20060;-81
2023/08/21 02:30:46;;;;;;;9.95;6.53;;;22.40;75.50;;;;;;5032700;28;20033;-81
2023/08/21 02:33:12;;;;;;;10.15;6.95;;;22.40;75.50;;;;;;5032651;28;20033;-81
2023/08/21 02:35:37;;;;;;;11.77;7.20;;;22.40;75.40;;;;;;5032520;28;20021;-78
2023/08/21 02:38:03;;;;;;;11.02;6.88;;;22.40;75.30;;;;;;5032532;28;20025;-78
2023/08/21 02:40:28;;;;;;;12.88;7.13;;;22.40;75.30;;;;;;5032626;28;20026;-79
2023/08/21 02:42:54;;;;;;;8.63;6.72;;;22.50;75.20;;;;;;5014833;28;20488;-79
2023/08/21 02:45:19;;;;;;;11.30;7.53;;;22.50;75.00;;;;;;5032544;28;20029;-79
2023/08/21 02:47:45;;;;;;;9.55;7.22;;;22.40;75.10;;;;;;5032645;28;20037;-79
2023/08/21 02:50:10;;;;;;;8.52;6.45;;;22.40;75.10;;;;;;5032601;28;20040;-83
2023/08/21 02:52:36;;;;;;;15.90;7.72;;;22.40;75.20;;;;;;5032614;28;20033;-82
2023/08/21 02:55:03;;;;;;;9.43;7.25;;;22.40;75.40;;;;;;5032510;28;20044;-82
2023/08/21 02:57:28;;;;;;;8.70;6.93;;;22.40;75.60;;;;;;5032407;28;20392;-81
2023/08/21 02:59:55;;;;;;;7.60;6.38;;;22.40;75.50;;;;;;5032582;28;20060;-82
2023/08/21 03:02:20;;;;;;;8.55;7.57;;;22.40;75.50;;;;;;5035936;28;20050;-82
2023/08/21 03:04:46;;;;;;;10.68;6.93;;;22.50;75.10;;;;;;5036360;28;20053;-82
2023/08/21 03:07:12;;;;;;;9.07;6.72;;;22.60;74.60;;;;;;5036227;28;20408;-75
2023/08/21 03:09:39;;;;;;;8.80;6.70;;;22.70;74.10;;;;;;5036216;28;20382;-76
2023/08/21 03:12:05;;;;;;;7.10;5.85;;;22.70;74.00;;;;;;5035970;28;20049;-76
2023/08/21 03:14:31;;;;;;;9.80;6.03;;;22.60;74.00;;;;;;5035903;28;20049;-75
2023/08/21 03:16:56;;;;;;;7.75;6.80;;;22.60;74.20;;;;;;5036106;28;20071;-75
2023/08/21 03:19:22;;;;;;;7.18;6.50;;;22.60;74.30;;;;;;5035944;28;20064;-76
2023/08/21 03:21:48;;;;;;;8.98;6.65;;;22.60;74.50;;;;;;5035807;28;20386;-76
2023/08/21 03:24:13;;;;;;;6.88;6.28;;;22.60;74.20;;;;;;5018056;28;20427;-77
2023/08/21 03:26:39;;;;;;;9.10;6.60;;;22.60;74.30;;;;;;5035895;28;20039;-75
2023/08/21 03:29:05;;;;;;;11.40;6.88;;;22.60;74.10;;;;;;5035846;28;20680;-78
2023/08/21 03:31:30;;;;;;;9.07;6.95;;;22.60;74.00;;;;;;5035829;28;20493;-76
2023/08/21 03:33:56;;;;;;;10.23;7.45;;;22.60;74.00;;;;;;5036038;28;20057;-77
2023/08/21 03:36:30;;;;;;;10.75;7.28;;;22.50;73.90;;;;;;5035635;28;20496;-76
2023/08/21 03:38:59;;;;;;;27.30;6.85;;;22.50;74.10;;;;;;5035586;28;20104;-76
2023/08/21 03:41:24;;;;;;;13.32;7.75;;;22.50;74.40;;;;;;5035569;28;20098;-76
2023/08/21 03:43:50;;;;;;;14.05;8.10;;;22.50;74.30;;;;;;5035471;28;20102;-76
2023/08/21 03:46:15;;;;;;;10.00;7.53;;;22.50;74.10;;;;;;5035429;28;20088;-76
2023/08/21 03:48:41;;;;;;;8.48;7.13;;;22.50;74.10;;;;;;5035404;28;20033;-76
2023/08/21 03:51:06;;;;;;;11.65;7.50;;;22.50;74.10;;;;;;5035160;28;20100;-75
2023/08/21 03:53:32;;;;;;;7.78;6.90;;;22.40;74.20;;;;;;5035201;28;20432;-76
2023/08/21 03:55:58;;;;;;;7.60;6.10;;;22.40;74.20;;;;;;5035669;28;20017;-75
2023/08/21 03:58:25;;;;;;;8.90;6.85;;;22.40;74.30;;;;;;5035363;28;20047;-75
2023/08/21 04:00:51;;;;;;;8.93;6.35;;;22.40;74.30;;;;;;5040460;28;20056;-75
2023/08/21 04:03:16;;;;;;;8.48;6.97;;;22.50;74.30;;;;;;5035315;28;20052;-80
2023/08/21 04:05:42;;;;;;;10.75;7.13;;;22.40;74.30;;;;;;5035035;28;20048;-81
2023/08/21 04:08:07;;;;;;;10.68;7.20;;;22.40;74.30;;;;;;5034985;28;20478;-80
2023/08/21 04:10:33;;;;;;;8.70;6.72;;;22.40;74.30;;;;;;5035079;28;20025;-81
2023/08/21 04:12:59;;;;;;;10.75;6.28;;;22.30;74.50;;;;;;5016039;28;20088;-81
2023/08/21 04:15:26;;;;;;;7.57;6.80;;;22.30;74.70;;;;;;5034978;28;20033;-81
2023/08/21 04:17:52;;;;;;;9.73;7.28;;;22.30;74.80;;;;;;5034935;28;20028;-81
2023/08/21 04:20:21;;;;;;;12.20;7.38;;;22.30;75.00;;;;;;5034909;28;20030;-81
2023/08/21 04:22:46;;;;;;;9.10;7.15;;;22.20;75.10;;;;;;5035021;28;20170;-81
2023/08/21 04:25:12;;;;;;;8.10;7.05;;;22.20;75.30;;;;;;5034936;28;20053;-81
2023/08/21 04:27:37;;;;;;;8.32;7.30;;;22.20;75.20;;;;;;5034852;28;20103;-81
2023/08/21 04:30:04;;;;;;;8.27;7.32;;;22.20;75.50;;;;;;5035034;28;20025;-80
2023/08/21 04:32:30;;;;;;;11.00;7.40;;;22.20;75.50;;;;;;5035088;28;20374;-82
2023/08/21 04:34:56;;;;;;;8.80;6.40;;;22.20;75.40;;;;;;5034783;28;20026;-82
2023/08/21 04:37:22;;;;;;;7.97;7.10;;;22.20;75.50;;;;;;5035098;28;20413;-81
2023/08/21 04:39:51;;;;;;;8.35;6.30;;;22.20;75.30;;;;;;5034868;28;20014;-82
2023/08/21 04:42:17;;;;;;;8.30;7.10;;;22.20;75.50;;;;;;5034843;28;20087;-79
2023/08/21 04:44:43;;;;;;;8.35;7.03;;;22.20;75.50;;;;;;5034863;28;20063;-78
2023/08/21 04:47:27;;;;;;;10.27;7.05;;;22.20;75.50;;;;;;5041066;28;20042;-79
2023/08/21 04:49:53;;;;;;;7.53;6.40;;;22.30;75.30;;;;;;5034653;28;20057;-82
2023/08/21 04:52:23;;;;;;;8.32;6.55;;;22.30;75.20;;;;;;5034776;28;20074;-82
2023/08/21 04:54:49;;;;;;;13.18;7.60;;;22.40;74.90;;;;;;5034665;28;20045;-79
2023/08/21 04:57:15;;;;;;;8.98;7.18;;;22.40;74.20;;;;;;5034416;28;20025;-81
2023/08/21 04:59:41;;;;;;;8.65;7.05;;;22.40;74.40;;;;;;5034701;28;20025;-83
2023/08/21 05:02:07;;;;;;;9.07;6.72;;;22.40;74.30;;;;;;5034396;28;20167;-80
2023/08/21 05:04:35;;;;;;;8.95;7.13;;;22.40;74.30;;;;;;5034295;28;20147;-79
2023/08/21 05:07:01;;;;;;;12.40;7.55;;;22.40;74.40;;;;;;5034157;28;20041;-82
2023/08/21 05:09:26;;;;;;;9.70;7.00;;;22.40;74.80;;;;;;5034354;28;20459;-79
2023/08/21 05:11:52;;;;;;;8.95;6.90;;;22.40;74.60;;;;;;5039976;28;20106;-78
2023/08/21 05:14:19;;;;;;;14.88;8.00;;;22.40;74.60;;;;;;5050269;28;20153;-78
2023/08/21 05:16:45;;;;;;;10.27;7.57;;;22.40;74.60;;;;;;5033959;28;20032;-79
2023/08/21 05:19:10;;;;;;;10.57;7.00;;;22.40;74.40;;;;;;5033728;28;20104;-78
2023/08/21 05:21:36;;;;;;;10.40;7.25;;;22.50;74.60;;;;;;5033928;28;20026;-80
2023/08/21 05:24:01;;;;;;;10.57;7.25;;;22.60;74.30;;;;;;5033646;28;20030;-79
2023/08/21 05:26:27;;;;;;;9.65;6.93;;;22.60;73.90;;;;;;5033806;28;20033;-79
2023/08/21 05:28:52;;;;;;;6.90;6.20;;;22.70;73.60;;;;;;5016158;28;20040;-79
2023/08/21 05:31:18;;;;;;;12.05;7.10;;;22.80;73.50;;;;;;5033872;28;20025;-78
2023/08/21 05:33:45;;;;;;;10.15;7.15;;;22.90;73.20;;;;;;5033793;28;20025;-79
2023/08/21 05:36:10;;;;;;;9.07;7.25;;;22.90;72.90;;;;;;5033727;28;20631;-78
2023/08/21 05:38:36;;;;;;;8.23;6.88;;;23.00;72.60;;;;;;5033381;28;20105;-78
2023/08/21 05:41:01;;;;;;;9.60;7.20;;;23.00;72.80;;;;;;5033438;28;20029;-79
2023/08/21 05:43:27;;;;;;;10.73;6.90;;;23.00;72.80;;;;;;5033450;28;20030;-79
2023/08/21 05:45:52;;;;;;;11.23;7.22;;;23.10;72.70;;;;;;5033221;28;20111;-78
2023/08/21 05:48:18;;;;;;;9.30;7.75;;;23.20;72.50;;;;;;5033275;28;20076;-78
2023/08/21 05:50:43;;;;;;;12.40;7.38;;;23.20;72.00;;;;;;5015597;28;20018;-77
2023/08/21 05:53:09;;;;;;;7.70;6.82;;;23.30;72.10;;;;;;5033384;28;20030;-78
2023/08/21 05:55:37;;;;;;;11.63;7.43;;;23.30;71.90;;;;;;5033234;28;20022;-77
2023/08/21 05:58:03;;;;;;;7.55;6.63;;;23.40;71.30;;;;;;5033206;28;20036;-76
2023/08/21 06:00:29;;;;;;;9.02;7.00;;;23.40;71.40;;;;;;5033401;28;20108;-78
2023/08/21 06:02:54;;;;;;;9.40;7.25;;;23.40;71.50;;;;;;5015446;28;20061;-78
2023/08/21 06:05:20;;;;;;;9.45;7.03;;;23.40;71.50;;;;;;5033401;28;20075;-78
2023/08/21 06:07:46;;;;;;;9.48;7.18;;;23.30;71.80;;;;;;5035437;28;20034;-79
2023/08/21 06:10:12;;;;;;;8.32;6.80;;;23.30;72.00;;;;;;5038511;28;20386;-81
2023/08/21 06:12:39;;;;;;;9.48;6.80;;;23.40;72.20;;;;;;5032948;28;20052;-80
2023/08/21 06:15:07;;;;;;;10.50;7.38;;;23.50;72.00;;;;;;5031381;28;20584;-81
2023/08/21 06:17:33;;;;;;;9.90;7.03;;;23.60;71.50;;;;;;5032872;28;20036;-80
2023/08/21 06:19:59;;;;;;;7.50;6.38;;;23.80;71.10;;;;;;5015146;28;20021;-80
2023/08/21 06:22:25;;;;;;;8.73;6.65;;;23.90;70.60;;;;;;5032943;28;20474;-78
2023/08/21 06:24:50;;;;;;;7.13;6.40;;;24.10;70.20;;;;;;5032842;28;20034;-80
2023/08/21 06:27:16;;;;;;;8.80;6.68;;;24.20;69.40;;;;;;5032687;28;20396;-79
2023/08/21 06:29:41;;;;;;;7.43;6.20;;;24.40;68.90;;;;;;5032687;28;20021;-78
2023/08/21 06:32:07;;;;;;;8.35;7.03;;;24.50;68.40;;;;;;5032600;28;20029;-79
2023/08/21 06:34:32;;;;;;;9.18;6.72;;;24.70;68.00;;;;;;5032904;28;20028;-78
2023/08/21 06:36:58;;;;;;;12.32;6.93;;;24.80;67.50;;;;;;5035820;28;20025;-78
2023/08/21 06:39:25;;;;;;;9.63;7.15;;;24.90;67.20;;;;;;5036726;28;20485;-78
2023/08/21 06:41:50;;;;;;;8.43;6.70;;;25.00;66.90;;;;;;5036924;28;20079;-78
2023/08/21 06:44:16;;;;;;;9.75;7.18;;;25.10;66.70;;;;;;5036632;28;20025;-78
2023/08/21 06:46:42;;;;;;;10.15;7.40;;;25.20;66.30;;;;;;5036453;28;20021;-75
2023/08/21 06:49:07;;;;;;;10.60;6.97;;;25.20;65.70;;;;;;5018510;28;20478;-77
2023/08/21 06:51:33;;;;;;;9.15;6.60;;;25.30;65.40;;;;;;5036481;28;20040;-78
2023/08/21 06:53:58;;;;;;;11.73;6.50;;;25.40;65.10;;;;;;5036560;28;20470;-79
2023/08/21 06:56:24;;;;;;;9.38;6.70;;;25.50;64.70;;;;;;5036604;28;20022;-79
2023/08/21 06:58:50;;;;;;;8.75;6.78;;;25.60;64.20;;;;;;5036424;28;20030;-79
2023/08/21 07:01:15;;;;;;;7.82;6.55;;;25.80;63.70;;;;;;5036584;28;20022;-79
2023/08/21 07:03:41;;;;;;;7.93;6.95;;;25.80;63.30;;;;;;5018480;28;20030;-78
2023/08/21 07:06:07;;;;;;;7.93;6.88;;;25.90;63.00;;;;;;5036174;28;20040;-77
2023/08/21 07:08:33;;;;;;;6.85;6.15;;;25.80;62.70;;;;;;5041007;28;20108;-79
2023/08/21 07:11:02;;;;;;;7.20;6.20;;;25.80;62.90;;;;;;5056243;28;20044;-78
2023/08/21 07:13:28;;;;;;;11.30;7.43;;;25.90;62.80;;;;;;5056632;28;20052;-81
2023/08/21 07:15:54;;;;;;;11.43;7.40;;;26.00;63.00;;;;;;5056972;28;20092;-81
2023/08/21 07:18:21;;;;;;;10.60;6.88;;;26.10;62.70;;;;;;5056891;28;20032;-83
2023/08/21 07:20:46;;;;;;;8.10;6.35;;;26.10;61.90;;;;;;5055973;28;20354;-79
2023/08/21 07:23:12;;;;;;;10.18;6.78;;;26.20;61.60;;;;;;5055932;28;20078;-79
2023/08/21 07:25:38;;;;;;;7.88;6.13;;;26.20;61.30;;;;;;5056003;28;20037;-79
2023/08/21 07:28:03;;;;;;;9.07;6.47;;;26.40;61.00;;;;;;5056112;28;20371;-79
2023/08/21 07:30:29;;;;;;;11.07;6.32;;;26.50;60.80;;;;;;5056109;28;20133;-79
2023/08/21 07:32:55;;;;;;;7.22;6.25;;;26.60;60.20;;;;;;5061971;28;20106;-79
2023/08/21 07:35:20;;;;;;;9.82;6.80;;;26.70;60.00;;;;;;5038271;28;20028;-79
2023/08/21 07:37:46;;;;;;;10.48;6.60;;;26.80;59.70;;;;;;5061848;28;20017;-78
2023/08/21 07:40:12;;;;;;;10.35;6.60;;;26.80;59.40;;;;;;5055549;28;20025;-79
2023/08/21 07:42:38;;;;;;;12.02;6.90;;;26.80;59.30;;;;;;5055418;28;20409;-79
2023/08/21 07:45:04;;;;;;;6.68;5.90;;;26.80;59.90;;;;;;5055505;28;20041;-79
2023/08/21 07:47:29;;;;;;;7.50;6.65;;;26.80;59.80;;;;;;5055525;28;20043;-79
2023/08/21 07:49:57;;;;;;;10.60;7.03;;;26.90;59.60;;;;;;5055480;28;20155;-79
2023/08/21 07:52:22;;;;;;;9.90;7.32;;;26.90;59.60;;;;;;5055472;28;20411;-79
2023/08/21 07:54:52;;;;;;;9.15;6.22;;;26.90;59.90;;;;;;5037349;28;20112;-78
2023/08/21 07:57:18;;;;;;;14.25;6.82;;;26.90;59.40;;;;;;5055401;28;20025;-79
2023/08/21 07:59:43;;;;;;;11.70;6.45;;;26.80;59.10;;;;;;5055471;28;20108;-79
2023/08/21 08:02:11;;;;;;;11.55;7.07;;;26.90;59.40;;;;;;5055231;28;20052;-79
2023/08/21 08:04:37;;;;;;;11.15;7.57;;;27.00;59.80;;;;;;5055108;28;20017;-78
2023/08/21 08:07:02;;;;;;;8.82;6.78;;;27.10;59.90;;;;;;5054848;28;20044;-79
2023/08/21 08:09:28;;;;;;;12.35;7.50;;;27.10;59.60;;;;;;5036783;28;20025;-79
2023/08/21 08:11:53;;;;;;;9.55;6.63;;;26.90;58.90;;;;;;5054565;28;20033;-79
2023/08/21 08:14:20;;;;;;;8.80;6.43;;;26.90;59.30;;;;;;5045405;28;20050;-79
2023/08/21 08:16:45;;;;;;;8.23;7.00;;;27.10;59.10;;;;;;5043995;28;20021;-79
2023/08/21 08:19:11;;;;;;;8.70;6.00;;;27.10;59.30;;;;;;5044713;28;20505;-78
2023/08/21 08:21:37;;;;;;;11.52;6.90;;;27.20;59.20;;;;;;5044313;28;20052;-79
2023/08/21 08:24:03;;;;;;;7.35;6.07;;;27.20;58.30;;;;;;5026312;28;20057;-79
2023/08/21 08:26:30;;;;;;;9.68;7.07;;;27.40;58.70;;;;;;5040019;28;20026;-78
2023/08/21 08:28:56;;;;;;;11.50;7.43;;;27.40;58.30;;;;;;5044504;28;20092;-78
2023/08/21 08:31:23;;;;;;;9.20;7.07;;;27.40;58.30;;;;;;5044588;28;20036;-79
2023/08/21 08:33:49;;;;;;;10.10;7.30;;;27.40;58.80;;;;;;5043822;28;20044;-79
2023/08/21 08:36:15;;;;;;;12.20;7.38;;;27.30;59.40;;;;;;5044671;28;20021;-78
2023/08/21 08:38:41;;;;;;;9.05;6.75;;;27.40;60.50;;;;;;5042726;28;20021;-78
2023/08/21 08:41:32;;;;;;;10.70;7.80;;;27.60;59.10;;;;;;5044977;28;20092;-79
2023/08/21 08:43:58;;;;;;;9.18;7.28;;;27.80;57.80;;;;;;5022992;28;20048;-77
2023/08/21 08:46:25;;;;;;;9.13;7.00;;;27.70;58.50;;;;;;5039392;28;20025;-78
2023/08/21 08:48:52;;;;;;;14.00;7.13;;;27.80;58.20;;;;;;5034357;28;20022;-78
2023/08/21 08:51:18;;;;;;;12.50;7.18;;;27.80;59.30;;;;;;5034637;28;20034;-78
2023/08/21 08:53:44;;;;;;;10.35;7.40;;;27.90;57.60;;;;;;5052125;28;20025;-79
2023/08/21 08:56:10;;;;;;;12.05;7.90;;;28.00;58.30;;;;;;5055380;28;20033;-78
2023/08/21 08:58:36;;;;;;;8.93;7.15;;;28.00;57.70;;;;;;5056794;28;20071;-79
2023/08/21 09:01:01;;;;;;;8.60;6.85;;;28.00;58.10;;;;;;5060068;28;20116;-79
2023/08/21 09:03:29;;;;;;;9.00;6.93;;;28.10;58.00;;;;;;5054361;28;20053;-79
2023/08/21 09:05:54;;;;;;;9.02;6.63;;;28.30;57.50;;;;;;5053877;28;20025;-79
2023/08/21 09:08:20;;;;;;;8.85;6.55;;;28.40;57.10;;;;;;5053972;28;20410;-79
2023/08/21 09:10:46;;;;;;;11.55;7.38;;;28.70;56.40;;;;;;5053856;28;20092;-79
2023/08/21 09:13:17;;;;;;;10.43;6.95;;;28.90;55.90;;;;;;5053558;28;20400;-78
2023/08/21 09:15:46;;;;;;;10.93;6.80;;;29.00;55.90;;;;;;5053953;28;20527;-79
2023/08/21 09:18:12;;;;;;;14.45;7.20;;;29.20;55.20;;;;;;5047315;28;20056;-79
2023/08/21 09:20:39;;;;;;;11.98;6.90;;;29.30;55.10;;;;;;5041870;28;20021;-80
2023/08/21 09:23:05;;;;;;;7.97;7.18;;;29.40;55.00;;;;;;5042445;28;20021;-78
2023/08/21 09:25:40;;;;;;;11.38;7.43;;;29.40;55.50;;;;;;5042683;28;20013;-81
2023/08/21 09:28:07;;;;;;;10.15;7.20;;;29.20;54.90;;;;;;5044342;28;20033;-80
2023/08/21 09:30:49;;;;;;;9.57;7.03;;;29.30;55.60;;;;;;5043534;28;20029;-84
2023/08/21 09:33:18;;;;;;;7.38;6.30;;;29.40;55.50;;;;;;5046143;28;20017;-80
2023/08/21 09:35:43;;;;;;;10.68;6.95;;;29.60;54.50;;;;;;5044762;28;20022;-87
2023/08/21 09:38:10;;;;;;;12.18;7.35;;;29.80;53.60;;;;;;5024944;28;20300;-80
2023/08/21 09:40:40;;;;;;;10.07;6.68;;;29.80;53.50;;;;;;5044373;28;20024;-78
2023/08/21 09:43:08;;;;;;;11.55;6.82;;;29.90;53.50;;;;;;5053994;28;20078;-82
2023/08/21 09:45:34;;;;;;;8.57;6.80;;;29.90;52.60;;;;;;5054389;28;20017;-85
2023/08/21 09:48:00;;;;;;;11.98;6.88;;;30.00;52.90;;;;;;5054225;28;20422;-84
2023/08/21 09:50:28;;;;;;;8.93;6.85;;;30.20;52.70;;;;;;5037187;28;20021;-81
2023/08/21 09:52:54;;;;;;;11.77;6.78;;;30.50;52.30;;;;;;5054359;28;20029;-83
2023/08/21 09:55:21;;;;;;;9.43;6.63;;;30.60;50.60;;;;;;5050557;28;20028;-89
2023/08/21 09:57:51;;;;;;;7.88;6.35;;;30.60;50.30;;;;;;5044004;28;20025;-89
2023/08/21 10:00:20;;;;;;;9.25;5.85;;;30.70;50.00;;;;;;5042109;28;20035;-85
2023/08/21 10:02:50;;;;;;;12.05;6.82;;;30.70;50.40;;;;;;5026004;28;20061;-87
2023/08/21 10:05:17;;;;;;;7.82;5.82;;;30.70;49.10;;;;;;5037299;28;20097;-83
2023/08/21 10:07:46;;;;;;;11.98;6.75;;;30.80;49.80;;;;;;5044392;28;20071;-80
2023/08/21 10:10:12;;;;;;;8.27;5.82;;;31.00;49.40;;;;;;5042138;28;20013;-83
2023/08/21 10:12:38;;;;;;;7.93;5.60;;;31.30;49.20;;;;;;5043292;28;20107;-78
2023/08/21 10:15:04;;;;;;;11.65;6.38;;;31.50;47.90;;;;;;5032141;28;20525;-81
2023/08/21 10:17:31;;;;;;;17.95;6.43;;;31.70;45.70;;;;;;5042451;28;20096;-82
2023/08/21 10:20:03;;;;;;;10.20;6.28;;;31.50;46.90;;;;;;5044120;28;20609;-82
2023/08/21 10:22:39;;;;;;;9.48;6.57;;;31.70;46.90;;;;;;5046115;28;20041;-88
2023/08/21 10:25:25;;;;;;;11.48;6.53;;;31.70;45.70;;;;;;5048692;28;20410;-86
2023/08/21 10:28:01;;;;;;;8.88;6.30;;;31.90;44.70;;;;;;5046448;28;20030;-78
2023/08/21 10:30:30;;;;;;;7.32;5.70;;;32.10;44.90;;;;;;5050976;28;20028;-78
2023/08/21 10:32:59;;;;;;;8.27;5.43;;;32.40;44.40;;;;;;5043121;28;20090;-79
2023/08/21 10:35:29;;;;;;;10.30;6.20;;;32.60;43.80;;;;;;5046381;28;20027;-83
2023/08/21 10:38:17;;;;;;;11.05;6.25;;;32.70;43.00;;;;;;5042406;28;20021;-88
2023/08/21 10:41:07;;;;;;;8.52;6.28;;;32.30;43.70;;;;;;5044303;28;20078;-81
2023/08/21 10:43:41;;;;;;;12.25;6.07;;;32.20;43.80;;;;;;5048077;28;20025;-87
2023/08/21 10:46:08;;;;;;;7.60;5.20;;;32.10;44.30;;;;;;5043393;28;20045;-85
2023/08/21 10:48:34;;;;;;;8.23;5.95;;;32.20;43.90;;;;;;5032054;28;20030;-76
2023/08/21 10:51:05;;;;;;;12.23;5.70;;;32.30;43.20;;;;;;5040697;28;20024;-83
2023/08/21 10:53:31;;;;;;;8.55;6.90;;;32.50;42.80;;;;;;5041840;28;20022;-77
2023/08/21 10:56:00;;;;;;;6.80;5.60;;;32.70;42.20;;;;;;5040842;28;20025;-89
2023/08/21 10:58:26;;;;;;;10.35;6.25;;;32.90;40.50;;;;;;5042670;28;20022;-77
2023/08/21 11:00:59;;;;;;;12.07;5.70;;;33.10;41.70;;;;;;5053673;28;20025;-79
2023/08/21 11:03:25;;;;;;;14.85;5.38;;;32.90;41.70;;;;;;5054852;28;20028;-81
2023/08/21 11:06:04;;;;;;;8.00;5.60;;;32.90;41.00;;;;;;5024506;28;20033;-89
2023/08/21 11:08:31;;;;;;;6.28;5.53;;;32.90;41.00;;;;;;5042118;28;20025;-90
2023/08/21 11:10:56;;;;;;;9.13;5.75;;;33.00;42.00;;;;;;5053301;28;20043;-90
2023/08/21 11:13:25;;;;;;;19.45;5.75;;;33.00;41.10;;;;;;5043661;28;20049;-77
2023/08/21 11:16:02;;;;;;;11.30;5.45;;;33.20;41.00;;;;;;5035270;28;20474;-77
2023/08/21 11:18:38;;;;;;;10.07;6.40;;;33.40;40.30;;;;;;5032275;28;20033;-77
2023/08/21 11:21:11;;;;;;;11.95;5.90;;;33.20;40.00;;;;;;5032182;28;20098;-77
2023/08/21 11:23:41;;;;;;;6.90;5.90;;;33.30;40.00;;;;;;5017955;28;20109;-77
2023/08/21 11:26:10;;;;;;;9.18;5.30;;;33.50;39.50;;;;;;5035917;28;20021;-77
2023/08/21 11:28:37;;;;;;;11.02;5.63;;;33.80;38.60;;;;;;5035929;28;20061;-77
2023/08/21 11:31:04;;;;;;;8.63;5.28;;;34.00;38.90;;;;;;5035829;28;20532;-77
2023/08/21 11:33:31;;;;;;;8.02;5.78;;;34.10;38.80;;;;;;5035990;28;20079;-77
2023/08/21 11:35:58;;;;;;;7.43;4.97;;;34.20;38.70;;;;;;5018022;28;20029;-77
2023/08/21 11:38:25;;;;;;;9.55;5.43;;;34.40;36.80;;;;;;5035584;28;20031;-77
2023/08/21 11:40:59;;;;;;;6.53;5.50;;;34.50;36.30;;;;;;5018152;28;20025;-77
2023/08/21 11:43:37;;;;;;;8.60;5.67;;;34.60;37.20;;;;;;5035743;28;20040;-78
2023/08/21 11:46:07;;;;;;;6.63;5.38;;;34.50;37.40;;;;;;5035588;28;20053;-77
2023/08/21 11:48:35;;;;;;;7.32;5.38;;;34.50;38.00;;;;;;5035809;28;20036;-75
2023/08/21 11:51:01;;;;;;;9.15;5.40;;;34.30;37.40;;;;;;5037816;28;20029;-77
2023/08/21 11:53:37;;;;;;;5.60;4.80;;;34.30;37.50;;;;;;5035334;28;20037;-76
2023/08/21 11:56:09;;;;;;;7.82;5.18;;;34.40;37.20;;;;;;5022769;28;20021;-77
2023/08/21 11:58:41;;;;;;;9.60;4.97;;;34.30;37.20;;;;;;5035345;28;20022;-77
2023/08/21 12:01:10;;;;;;;9.68;5.80;;;34.50;36.80;;;;;;5035287;28;20021;-77
2023/08/21 12:03:39;;;;;;;11.05;5.20;;;34.60;36.80;;;;;;5035251;28;20041;-75
2023/08/21 12:06:09;;;;;;;10.57;5.80;;;34.90;36.70;;;;;;5021188;28;20382;-77
2023/08/21 12:08:35;;;;;;;8.50;5.35;;;35.20;36.20;;;;;;5038207;28;20044;-78
2023/08/21 12:11:01;;;;;;;10.75;5.45;;;35.40;34.70;;;;;;5045046;28;20024;-77
2023/08/21 12:13:27;;;;;;;8.27;5.03;;;35.00;35.80;;;;;;5045671;28;20037;-77
2023/08/21 12:15:53;;;;;;;6.68;5.00;;;35.10;35.60;;;;;;5043401;28;20045;-78
2023/08/21 12:18:18;;;;;;;11.18;4.90;;;35.50;36.10;;;;;;5039974;28;20048;-78
2023/08/21 12:20:44;;;;;;;8.60;5.22;;;35.80;33.70;;;;;;5041336;28;20044;-78
2023/08/21 12:23:09;;;;;;;10.68;5.25;;;35.50;34.90;;;;;;5045847;28;20021;-78
2023/08/21 12:25:35;;;;;;;8.23;4.38;;;35.50;34.80;;;;;;5054798;28;20428;-75
2023/08/21 12:28:00;;;;;;;9.98;4.80;;;35.80;34.60;;;;;;5048558;28;20056;-75
2023/08/21 12:30:26;;;;;;;6.55;4.75;;;35.90;33.80;;;;;;5044207;28;20021;-74
2023/08/21 12:32:51;;;;;;;8.38;5.18;;;35.80;33.90;;;;;;5044157;28;20029;-74
2023/08/21 12:35:17;;;;;;;8.10;4.80;;;35.70;34.30;;;;;;5032449;28;20079;-77
2023/08/21 12:37:43;;;;;;;7.88;4.20;;;35.90;33.20;;;;;;5034439;28;20021;-76
2023/08/21 12:40:09;;;;;;;8.95;4.78;;;36.00;33.60;;;;;;5034458;28;20033;-78
2023/08/21 12:42:34;;;;;;;8.35;5.30;;;36.10;32.70;;;;;;5034341;28;20017;-78